sensor_id;sensor_type;location;lat;lon;timestamp;P1;durP1;ratioP1;P2;durP2;ratioP2
64235;SDS011;50564;47.402;9.740;2023-02-23T00:01:44;10.25;;;6.50;;
64235;SDS011;50564;47.402;9.740;2023-02-23T00:06:44;11.55;;;6.70;;
64235;SDS011;50564;47.402;9.740;2023-02-23T00:11:45;11.18;;;7.07;;
64235;SDS011;50564;47.402;9.740;2023-02-23T00:16:46;12.02;;;7.55;;
64235;SDS011;50564;47.402;9.740;2023-02-23T00:21:47;11.50;;;7.43;;
64235;SDS011;50564;47.402;9.740;2023-02-23T00:26:48;10.52;;;7.45;;
64235;SDS011;50564;47.402;9.740;2023-02-23T00:31:50;13.82;;;9.20;;
64235;SDS011;50564;47.402;9.740;2023-02-23T00:36:52;15.15;;;10.13;;
64235;SDS011;50564;47.402;9.740;2023-02-23T00:41:54;17.17;;;10.55;;
64235;SDS011;50564;47.402;9.740;2023-02-23T00:46:55;16.95;;;9.57;;
64235;SDS011;50564;47.402;9.740;2023-02-23T00:51:56;16.55;;;11.02;;
64235;SDS011;50564;47.402;9.740;2023-02-23T00:56:57;18.10;;;11.65;;
64235;SDS011;50564;47.402;9.740;2023-02-23T01:01:58;18.35;;;11.38;;
64235;SDS011;50564;47.402;9.740;2023-02-23T01:06:58;17.48;;;11.52;;
64235;SDS011;50564;47.402;9.740;2023-02-23T01:12:01;19.95;;;13.38;;
64235;SDS011;50564;47.402;9.740;2023-02-23T01:17:01;20.67;;;13.63;;
64235;SDS011;50564;47.402;9.740;2023-02-23T01:22:02;22.38;;;14.93;;
64235;SDS011;50564;47.402;9.740;2023-02-23T01:27:03;24.15;;;15.10;;
64235;SDS011;50564;47.402;9.740;2023-02-23T01:32:04;24.25;;;15.00;;
64235;SDS011;50564;47.402;9.740;2023-02-23T01:37:04;21.75;;;15.57;;
64235;SDS011;50564;47.402;9.740;2023-02-23T01:42:08;26.30;;;18.17;;
64235;SDS011;50564;47.402;9.740;2023-02-23T01:47:13;27.15;;;17.77;;
64235;SDS011;50564;47.402;9.740;2023-02-23T01:52:14;27.02;;;18.02;;
64235;SDS011;50564;47.402;9.740;2023-02-23T01:57:17;23.42;;;16.77;;
64235;SDS011;50564;47.402;9.740;2023-02-23T02:02:21;21.75;;;14.82;;
64235;SDS011;50564;47.402;9.740;2023-02-23T02:07:24;21.90;;;14.60;;
64235;SDS011;50564;47.402;9.740;2023-02-23T02:12:26;23.38;;;15.45;;
64235;SDS011;50564;47.402;9.740;2023-02-23T02:50:35;33.42;;;22.83;;
64235;SDS011;50564;47.402;9.740;2023-02-23T02:56:02;35.03;;;23.40;;
64235;SDS011;50564;47.402;9.740;2023-02-23T03:01:08;37.25;;;25.23;;
64235;SDS011;50564;47.402;9.740;2023-02-23T03:06:32;38.75;;;27.13;;
64235;SDS011;50564;47.402;9.740;2023-02-23T03:28:32;35.47;;;24.77;;
64235;SDS011;50564;47.402;9.740;2023-02-23T03:34:01;37.30;;;24.83;;
64235;SDS011;50564;47.402;9.740;2023-02-23T03:39:36;34.30;;;25.65;;
64235;SDS011;50564;47.402;9.740;2023-02-23T03:45:00;37.63;;;23.98;;
64235;SDS011;50564;47.402;9.740;2023-02-23T03:50:27;32.63;;;23.33;;
64235;SDS011;50564;47.402;9.740;2023-02-23T03:55:50;34.85;;;24.25;;
64235;SDS011;50564;47.402;9.740;2023-02-23T04:01:12;31.58;;;23.35;;
64235;SDS011;50564;47.402;9.740;2023-02-23T04:06:35;33.85;;;24.77;;
64235;SDS011;50564;47.402;9.740;2023-02-23T04:17:27;29.58;;;20.27;;
64235;SDS011;50564;47.402;9.740;2023-02-23T04:22:29;27.45;;;18.23;;
64235;SDS011;50564;47.402;9.740;2023-02-23T04:27:29;22.52;;;16.45;;
64235;SDS011;50564;47.402;9.740;2023-02-23T04:32:30;19.73;;;14.50;;
64235;SDS011;50564;47.402;9.740;2023-02-23T04:37:31;17.45;;;11.48;;
64235;SDS011;50564;47.402;9.740;2023-02-23T04:42:32;16.25;;;10.85;;
64235;SDS011;50564;47.402;9.740;2023-02-23T04:47:33;16.83;;;12.00;;
64235;SDS011;50564;47.402;9.740;2023-02-23T04:52:33;18.80;;;12.88;;
64235;SDS011;50564;47.402;9.740;2023-02-23T04:57:34;20.13;;;13.45;;
64235;SDS011;50564;47.402;9.740;2023-02-23T05:02:34;24.38;;;14.95;;
64235;SDS011;50564;47.402;9.740;2023-02-23T05:07:35;19.63;;;12.02;;
64235;SDS011;50564;47.402;9.740;2023-02-23T05:12:36;13.65;;;9.40;;
64235;SDS011;50564;47.402;9.740;2023-02-23T05:17:37;16.75;;;9.95;;
64235;SDS011;50564;47.402;9.740;2023-02-23T05:22:40;16.17;;;10.25;;
64235;SDS011;50564;47.402;9.740;2023-02-23T05:27:41;16.95;;;11.32;;
64235;SDS011;50564;47.402;9.740;2023-02-23T05:32:42;20.63;;;14.20;;
64235;SDS011;50564;47.402;9.740;2023-02-23T05:37:43;17.23;;;11.55;;
64235;SDS011;50564;47.402;9.740;2023-02-23T05:42:44;29.38;;;21.02;;
64235;SDS011;50564;47.402;9.740;2023-02-23T05:47:45;35.00;;;24.27;;
64235;SDS011;50564;47.402;9.740;2023-02-23T05:52:45;39.97;;;30.23;;
64235;SDS011;50564;47.402;9.740;2023-02-23T05:57:46;41.80;;;29.85;;
64235;SDS011;50564;47.402;9.740;2023-02-23T06:02:47;41.10;;;30.33;;
64235;SDS011;50564;47.402;9.740;2023-02-23T06:07:49;44.55;;;33.55;;
64235;SDS011;50564;47.402;9.740;2023-02-23T06:12:49;46.70;;;35.78;;
64235;SDS011;50564;47.402;9.740;2023-02-23T06:17:50;37.58;;;28.23;;
64235;SDS011;50564;47.402;9.740;2023-02-23T06:22:51;48.53;;;33.60;;
64235;SDS011;50564;47.402;9.740;2023-02-23T06:27:51;49.47;;;35.05;;
64235;SDS011;50564;47.402;9.740;2023-02-23T06:32:52;50.85;;;35.17;;
64235;SDS011;50564;47.402;9.740;2023-02-23T06:37:55;52.67;;;38.05;;
64235;SDS011;50564;47.402;9.740;2023-02-23T06:42:56;56.35;;;38.88;;
64235;SDS011;50564;47.402;9.740;2023-02-23T06:47:57;54.97;;;41.38;;
64235;SDS011;50564;47.402;9.740;2023-02-23T06:52:58;43.85;;;34.90;;
64235;SDS011;50564;47.402;9.740;2023-02-23T06:57:59;46.13;;;34.85;;
64235;SDS011;50564;47.402;9.740;2023-02-23T07:03:00;41.00;;;27.95;;
64235;SDS011;50564;47.402;9.740;2023-02-23T07:08:01;43.33;;;32.97;;
64235;SDS011;50564;47.402;9.740;2023-02-23T07:13:03;47.75;;;36.45;;
64235;SDS011;50564;47.402;9.740;2023-02-23T07:18:03;51.17;;;37.90;;
64235;SDS011;50564;47.402;9.740;2023-02-23T07:23:04;47.72;;;36.40;;
64235;SDS011;50564;47.402;9.740;2023-02-23T07:28:05;54.97;;;39.08;;
64235;SDS011;50564;47.402;9.740;2023-02-23T07:33:05;47.83;;;36.63;;
64235;SDS011;50564;47.402;9.740;2023-02-23T07:38:06;46.78;;;35.20;;
64235;SDS011;50564;47.402;9.740;2023-02-23T07:43:07;43.72;;;34.25;;
64235;SDS011;50564;47.402;9.740;2023-02-23T07:48:09;51.13;;;35.58;;
64235;SDS011;50564;47.402;9.740;2023-02-23T07:53:09;47.42;;;32.92;;
64235;SDS011;50564;47.402;9.740;2023-02-23T07:58:10;54.97;;;35.55;;
64235;SDS011;50564;47.402;9.740;2023-02-23T08:03:12;47.88;;;34.00;;
64235;SDS011;50564;47.402;9.740;2023-02-23T08:08:13;42.67;;;30.30;;
64235;SDS011;50564;47.402;9.740;2023-02-23T08:13:14;45.35;;;32.50;;
64235;SDS011;50564;47.402;9.740;2023-02-23T08:18:15;53.55;;;37.65;;
64235;SDS011;50564;47.402;9.740;2023-02-23T08:23:16;47.50;;;35.25;;
64235;SDS011;50564;47.402;9.740;2023-02-23T08:28:17;50.53;;;35.13;;
64235;SDS011;50564;47.402;9.740;2023-02-23T08:33:18;46.88;;;31.23;;
64235;SDS011;50564;47.402;9.740;2023-02-23T08:38:19;34.30;;;22.60;;
64235;SDS011;50564;47.402;9.740;2023-02-23T08:43:19;31.75;;;21.40;;
64235;SDS011;50564;47.402;9.740;2023-02-23T08:48:20;25.55;;;17.63;;
64235;SDS011;50564;47.402;9.740;2023-02-23T08:53:24;22.38;;;14.80;;
64235;SDS011;50564;47.402;9.740;2023-02-23T08:58:29;23.05;;;12.27;;
64235;SDS011;50564;47.402;9.740;2023-02-23T09:03:30;34.65;;;24.08;;
64235;SDS011;50564;47.402;9.740;2023-02-23T09:08:32;40.75;;;28.30;;
64235;SDS011;50564;47.402;9.740;2023-02-23T09:13:32;40.08;;;29.80;;
64235;SDS011;50564;47.402;9.740;2023-02-23T09:18:33;42.47;;;30.48;;
64235;SDS011;50564;47.402;9.740;2023-02-23T09:23:35;40.92;;;28.63;;
64235;SDS011;50564;47.402;9.740;2023-02-23T09:28:36;37.55;;;27.17;;
64235;SDS011;50564;47.402;9.740;2023-02-23T09:33:38;34.58;;;25.65;;
64235;SDS011;50564;47.402;9.740;2023-02-23T09:38:38;31.95;;;24.17;;
64235;SDS011;50564;47.402;9.740;2023-02-23T09:43:58;29.48;;;21.33;;
64235;SDS011;50564;47.402;9.740;2023-02-23T09:49:03;33.45;;;24.60;;
64235;SDS011;50564;47.402;9.740;2023-02-23T09:54:05;31.05;;;21.75;;
64235;SDS011;50564;47.402;9.740;2023-02-23T09:59:12;28.52;;;21.48;;
64235;SDS011;50564;47.402;9.740;2023-02-23T10:21:03;25.48;;;20.33;;
64235;SDS011;50564;47.402;9.740;2023-02-23T10:26:03;21.55;;;15.57;;
64235;SDS011;50564;47.402;9.740;2023-02-23T10:31:25;19.98;;;13.82;;
64235;SDS011;50564;47.402;9.740;2023-02-23T10:36:36;19.67;;;13.40;;
64235;SDS011;50564;47.402;9.740;2023-02-23T10:41:39;21.15;;;15.27;;
64235;SDS011;50564;47.402;9.740;2023-02-23T10:46:41;17.83;;;12.35;;
64235;SDS011;50564;47.402;9.740;2023-02-23T10:51:42;16.05;;;10.68;;
64235;SDS011;50564;47.402;9.740;2023-02-23T10:56:43;12.88;;;7.75;;
64235;SDS011;50564;47.402;9.740;2023-02-23T11:01:45;10.07;;;7.07;;
64235;SDS011;50564;47.402;9.740;2023-02-23T11:06:46;10.90;;;7.32;;
64235;SDS011;50564;47.402;9.740;2023-02-23T11:11:55;13.82;;;8.20;;
64235;SDS011;50564;47.402;9.740;2023-02-23T11:16:59;11.77;;;7.05;;
64235;SDS011;50564;47.402;9.740;2023-02-23T11:22:00;13.15;;;5.60;;
64235;SDS011;50564;47.402;9.740;2023-02-23T11:27:04;10.13;;;5.70;;
64235;SDS011;50564;47.402;9.740;2023-02-23T11:32:14;10.77;;;6.50;;
64235;SDS011;50564;47.402;9.740;2023-02-23T11:37:19;10.32;;;6.40;;
64235;SDS011;50564;47.402;9.740;2023-02-23T11:42:21;14.10;;;6.53;;
64235;SDS011;50564;47.402;9.740;2023-02-23T11:47:24;10.68;;;6.15;;
64235;SDS011;50564;47.402;9.740;2023-02-23T11:52:25;9.85;;;6.00;;
64235;SDS011;50564;47.402;9.740;2023-02-23T11:57:28;13.50;;;5.90;;
64235;SDS011;50564;47.402;9.740;2023-02-23T12:02:30;8.77;;;4.60;;
64235;SDS011;50564;47.402;9.740;2023-02-23T12:12:52;11.57;;;5.30;;
64235;SDS011;50564;47.402;9.740;2023-02-23T12:18:01;7.97;;;5.00;;
64235;SDS011;50564;47.402;9.740;2023-02-23T12:23:19;7.88;;;4.45;;
64235;SDS011;50564;47.402;9.740;2023-02-23T12:28:35;8.70;;;4.90;;
64235;SDS011;50564;47.402;9.740;2023-02-23T12:33:38;9.15;;;4.50;;
64235;SDS011;50564;47.402;9.740;2023-02-23T12:43:57;7.68;;;4.05;;
64235;SDS011;50564;47.402;9.740;2023-02-23T12:49:03;11.68;;;5.30;;
64235;SDS011;50564;47.402;9.740;2023-02-23T12:54:13;8.20;;;5.25;;
64235;SDS011;50564;47.402;9.740;2023-02-23T13:20:36;9.38;;;4.95;;
64235;SDS011;50564;47.402;9.740;2023-02-23T13:30:59;11.55;;;6.32;;
64235;SDS011;50564;47.402;9.740;2023-02-23T13:36:01;9.93;;;5.82;;
64235;SDS011;50564;47.402;9.740;2023-02-23T13:41:12;9.10;;;5.35;;
64235;SDS011;50564;47.402;9.740;2023-02-23T13:46:59;10.80;;;7.07;;
64235;SDS011;50564;47.402;9.740;2023-02-23T13:52:42;10.73;;;6.82;;
64235;SDS011;50564;47.402;9.740;2023-02-23T13:57:32;9.57;;;6.30;;
64235;SDS011;50564;47.402;9.740;2023-02-23T14:02:35;10.98;;;6.15;;
64235;SDS011;50564;47.402;9.740;2023-02-23T14:07:38;10.07;;;5.95;;
64235;SDS011;50564;47.402;9.740;2023-02-23T14:12:42;10.30;;;5.88;;
64235;SDS011;50564;47.402;9.740;2023-02-23T14:18:26;11.75;;;5.43;;
64235;SDS011;50564;47.402;9.740;2023-02-23T14:29:08;14.32;;;5.57;;
64235;SDS011;50564;47.402;9.740;2023-02-23T14:34:47;13.63;;;6.43;;
64235;SDS011;50564;47.402;9.740;2023-02-23T14:45:16;17.70;;;11.55;;
64235;SDS011;50564;47.402;9.740;2023-02-23T14:55:30;15.63;;;10.43;;
64235;SDS011;50564;47.402;9.740;2023-02-23T15:00:40;14.32;;;9.15;;
64235;SDS011;50564;47.402;9.740;2023-02-23T15:06:00;14.70;;;7.82;;
64235;SDS011;50564;47.402;9.740;2023-02-23T15:11:10;10.75;;;7.80;;
64235;SDS011;50564;47.402;9.740;2023-02-23T15:16:13;12.27;;;6.93;;
64235;SDS011;50564;47.402;9.740;2023-02-23T15:21:22;12.75;;;7.18;;
64235;SDS011;50564;47.402;9.740;2023-02-23T15:31:30;15.43;;;8.00;;
64235;SDS011;50564;47.402;9.740;2023-02-23T15:36:32;11.43;;;6.78;;
64235;SDS011;50564;47.402;9.740;2023-02-23T15:41:35;13.93;;;7.13;;
64235;SDS011;50564;47.402;9.740;2023-02-23T15:46:36;11.63;;;6.90;;
64235;SDS011;50564;47.402;9.740;2023-02-23T15:51:47;10.73;;;6.57;;
64235;SDS011;50564;47.402;9.740;2023-02-23T15:56:55;10.60;;;6.38;;
64235;SDS011;50564;47.402;9.740;2023-02-23T16:01:58;15.23;;;7.15;;
64235;SDS011;50564;47.402;9.740;2023-02-23T16:07:06;10.48;;;5.60;;
64235;SDS011;50564;47.402;9.740;2023-02-23T16:12:16;12.80;;;6.95;;
64235;SDS011;50564;47.402;9.740;2023-02-23T16:17:24;12.43;;;6.88;;
64235;SDS011;50564;47.402;9.740;2023-02-23T16:22:28;11.63;;;6.72;;
64235;SDS011;50564;47.402;9.740;2023-02-23T16:27:28;16.45;;;10.43;;
64235;SDS011;50564;47.402;9.740;2023-02-23T16:32:34;14.00;;;7.85;;
64235;SDS011;50564;47.402;9.740;2023-02-23T16:37:47;11.82;;;6.22;;
64235;SDS011;50564;47.402;9.740;2023-02-23T16:42:55;11.20;;;5.13;;
64235;SDS011;50564;47.402;9.740;2023-02-23T16:47:58;10.18;;;6.15;;
64235;SDS011;50564;47.402;9.740;2023-02-23T16:53:02;14.20;;;6.38;;
64235;SDS011;50564;47.402;9.740;2023-02-23T16:58:07;10.07;;;5.30;;
64235;SDS011;50564;47.402;9.740;2023-02-23T17:03:18;13.88;;;5.35;;
64235;SDS011;50564;47.402;9.740;2023-02-23T17:08:30;9.57;;;4.80;;
64235;SDS011;50564;47.402;9.740;2023-02-23T17:13:31;8.48;;;5.25;;
64235;SDS011;50564;47.402;9.740;2023-02-23T17:18:33;11.23;;;5.85;;
64235;SDS011;50564;47.402;9.740;2023-02-23T17:23:44;10.70;;;4.80;;
64235;SDS011;50564;47.402;9.740;2023-02-23T17:28:50;11.07;;;4.85;;
64235;SDS011;50564;47.402;9.740;2023-02-23T17:33:51;9.60;;;4.57;;
64235;SDS011;50564;47.402;9.740;2023-02-23T17:38:53;9.02;;;3.97;;
64235;SDS011;50564;47.402;9.740;2023-02-23T17:44:03;11.40;;;4.28;;
64235;SDS011;50564;47.402;9.740;2023-02-23T17:49:05;12.38;;;4.68;;
64235;SDS011;50564;47.402;9.740;2023-02-23T17:54:06;10.65;;;5.97;;
64235;SDS011;50564;47.402;9.740;2023-02-23T17:59:08;16.33;;;4.97;;
64235;SDS011;50564;47.402;9.740;2023-02-23T18:04:10;11.73;;;5.50;;
64235;SDS011;50564;47.402;9.740;2023-02-23T18:09:11;9.77;;;4.15;;
64235;SDS011;50564;47.402;9.740;2023-02-23T18:14:13;8.35;;;4.63;;
64235;SDS011;50564;47.402;9.740;2023-02-23T18:19:17;9.65;;;5.53;;
64235;SDS011;50564;47.402;9.740;2023-02-23T18:24:19;10.75;;;5.18;;
64235;SDS011;50564;47.402;9.740;2023-02-23T18:29:21;13.10;;;7.32;;
64235;SDS011;50564;47.402;9.740;2023-02-23T18:34:24;13.35;;;5.53;;
64235;SDS011;50564;47.402;9.740;2023-02-23T18:39:27;10.90;;;7.32;;
64235;SDS011;50564;47.402;9.740;2023-02-23T18:44:31;18.90;;;7.78;;
64235;SDS011;50564;47.402;9.740;2023-02-23T18:49:33;13.02;;;5.40;;
64235;SDS011;50564;47.402;9.740;2023-02-23T18:54:36;7.97;;;3.65;;
64235;SDS011;50564;47.402;9.740;2023-02-23T18:59:40;9.73;;;3.70;;
64235;SDS011;50564;47.402;9.740;2023-02-23T19:04:42;10.50;;;4.10;;
64235;SDS011;50564;47.402;9.740;2023-02-23T19:09:44;8.57;;;3.03;;
64235;SDS011;50564;47.402;9.740;2023-02-23T19:14:49;10.80;;;3.88;;
64235;SDS011;50564;47.402;9.740;2023-02-23T19:19:51;7.90;;;3.45;;
64235;SDS011;50564;47.402;9.740;2023-02-23T19:24:56;9.45;;;4.13;;
64235;SDS011;50564;47.402;9.740;2023-02-23T19:29:57;10.45;;;3.92;;
64235;SDS011;50564;47.402;9.740;2023-02-23T19:34:58;7.82;;;4.18;;
64235;SDS011;50564;47.402;9.740;2023-02-23T19:40:01;12.65;;;6.22;;
64235;SDS011;50564;47.402;9.740;2023-02-23T19:45:02;13.95;;;7.90;;
64235;SDS011;50564;47.402;9.740;2023-02-23T19:50:04;14.60;;;8.48;;
64235;SDS011;50564;47.402;9.740;2023-02-23T19:55:06;12.55;;;4.90;;
64235;SDS011;50564;47.402;9.740;2023-02-23T20:00:08;9.63;;;3.40;;
64235;SDS011;50564;47.402;9.740;2023-02-23T20:05:12;9.27;;;4.40;;
64235;SDS011;50564;47.402;9.740;2023-02-23T20:10:14;9.73;;;4.18;;
64235;SDS011;50564;47.402;9.740;2023-02-23T20:15:16;9.70;;;3.75;;
64235;SDS011;50564;47.402;9.740;2023-02-23T20:20:17;11.77;;;5.32;;
64235;SDS011;50564;47.402;9.740;2023-02-23T20:25:21;10.40;;;4.20;;
64235;SDS011;50564;47.402;9.740;2023-02-23T20:30:23;8.60;;;3.55;;
64235;SDS011;50564;47.402;9.740;2023-02-23T20:35:24;9.48;;;3.30;;
64235;SDS011;50564;47.402;9.740;2023-02-23T20:40:27;11.57;;;3.50;;
64235;SDS011;50564;47.402;9.740;2023-02-23T20:45:28;8.98;;;3.97;;
64235;SDS011;50564;47.402;9.740;2023-02-23T20:50:30;9.90;;;4.25;;
64235;SDS011;50564;47.402;9.740;2023-02-23T20:55:33;8.40;;;3.95;;
64235;SDS011;50564;47.402;9.740;2023-02-23T21:00:35;9.57;;;5.07;;
64235;SDS011;50564;47.402;9.740;2023-02-23T21:05:37;7.97;;;3.25;;
64235;SDS011;50564;47.402;9.740;2023-02-23T21:10:42;8.70;;;4.20;;
64235;SDS011;50564;47.402;9.740;2023-02-23T21:15:52;9.82;;;3.63;;
64235;SDS011;50564;47.402;9.740;2023-02-23T21:20:57;6.70;;;3.03;;
64235;SDS011;50564;47.402;9.740;2023-02-23T21:26:09;10.93;;;3.50;;
64235;SDS011;50564;47.402;9.740;2023-02-23T21:31:15;6.35;;;3.25;;
64235;SDS011;50564;47.402;9.740;2023-02-23T21:36:16;6.68;;;3.50;;
64235;SDS011;50564;47.402;9.740;2023-02-23T21:41:17;8.82;;;4.28;;
64235;SDS011;50564;47.402;9.740;2023-02-23T21:46:18;9.20;;;3.75;;
64235;SDS011;50564;47.402;9.740;2023-02-23T21:51:20;8.20;;;3.20;;
64235;SDS011;50564;47.402;9.740;2023-02-23T21:56:21;8.18;;;3.50;;
64235;SDS011;50564;47.402;9.740;2023-02-23T22:01:26;10.65;;;4.55;;
64235;SDS011;50564;47.402;9.740;2023-02-23T22:06:30;15.07;;;8.00;;
64235;SDS011;50564;47.402;9.740;2023-02-23T22:16:38;14.23;;;9.02;;
64235;SDS011;50564;47.402;9.740;2023-02-23T22:21:43;12.18;;;6.03;;
64235;SDS011;50564;47.402;9.740;2023-02-23T22:26:44;9.25;;;4.43;;
64235;SDS011;50564;47.402;9.740;2023-02-23T22:31:49;10.85;;;4.50;;
64235;SDS011;50564;47.402;9.740;2023-02-23T22:36:50;12.63;;;4.22;;
64235;SDS011;50564;47.402;9.740;2023-02-23T22:41:54;8.25;;;3.88;;
64235;SDS011;50564;47.402;9.740;2023-02-23T22:46:54;7.35;;;3.85;;
64235;SDS011;50564;47.402;9.740;2023-02-23T22:51:55;7.13;;;4.03;;
64235;SDS011;50564;47.402;9.740;2023-02-23T22:56:56;10.50;;;3.90;;
64235;SDS011;50564;47.402;9.740;2023-02-23T23:02:15;8.45;;;3.65;;
64235;SDS011;50564;47.402;9.740;2023-02-23T23:07:15;11.10;;;3.90;;
64235;SDS011;50564;47.402;9.740;2023-02-23T23:12:19;11.10;;;5.43;;
64235;SDS011;50564;47.402;9.740;2023-02-23T23:17:19;10.77;;;3.55;;
64235;SDS011;50564;47.402;9.740;2023-02-23T23:22:21;11.95;;;5.22;;
64235;SDS011;50564;47.402;9.740;2023-02-23T23:27:24;11.00;;;5.45;;
64235;SDS011;50564;47.402;9.740;2023-02-23T23:32:25;13.32;;;5.18;;
64235;SDS011;50564;47.402;9.740;2023-02-23T23:37:27;8.63;;;4.63;;
64235;SDS011;50564;47.402;9.740;2023-02-23T23:42:28;12.73;;;3.63;;
64235;SDS011;50564;47.402;9.740;2023-02-23T23:47:29;11.57;;;4.53;;
64235;SDS011;50564;47.402;9.740;2023-02-23T23:52:30;8.38;;;4.13;;
64235;SDS011;50564;47.402;9.740;2023-02-23T23:57:34;12.45;;;4.50;;
